sensor_id;sensor_type;location;lat;lon;timestamp;P1;P2;P0
47079;PMS5003;33067;49.296;14.470;2022-12-29T00:01:17;52;46;
47079;PMS5003;33067;49.296;14.470;2022-12-29T00:03:45;35;32;
47079;PMS5003;33067;49.296;14.470;2022-12-29T00:06:08;41;39;
47079;PMS5003;33067;49.296;14.470;2022-12-29T00:08:34;42;41;
47079;PMS5003;33067;49.296;14.470;2022-12-29T00:10:59;49;44;
47079;PMS5003;33067;49.296;14.470;2022-12-29T00:13:25;48;43;
47079;PMS5003;33067;49.296;14.470;2022-12-29T00:15:50;25;24;
47079;PMS5003;33067;49.296;14.470;2022-12-29T00:18:16;29;29;
47079;PMS5003;33067;49.296;14.470;2022-12-29T00:20:41;55;54;
47079;PMS5003;33067;49.296;14.470;2022-12-29T00:23:08;30;30;
47079;PMS5003;33067;49.296;14.470;2022-12-29T00:25:31;36;35;
47079;PMS5003;33067;49.296;14.470;2022-12-29T00:27:56;63;62;
47079;PMS5003;33067;49.296;14.470;2022-12-29T00:30:22;43;41;
47079;PMS5003;33067;49.296;14.470;2022-12-29T00:32:47;38;37;
47079;PMS5003;33067;49.296;14.470;2022-12-29T00:35:13;42;38;
47079;PMS5003;33067;49.296;14.470;2022-12-29T00:37:37;40;37;
47079;PMS5003;33067;49.296;14.470;2022-12-29T00:40:03;44;41;
47079;PMS5003;33067;49.296;14.470;2022-12-29T00:42:28;49;49;
47079;PMS5003;33067;49.296;14.470;2022-12-29T00:44:53;45;40;
47079;PMS5003;33067;49.296;14.470;2022-12-29T00:47:19;42;36;
47079;PMS5003;33067;49.296;14.470;2022-12-29T00:49:44;44;43;
47079;PMS5003;33067;49.296;14.470;2022-12-29T00:52:10;61;55;
47079;PMS5003;33067;49.296;14.470;2022-12-29T00:54:36;52;49;
47079;PMS5003;33067;49.296;14.470;2022-12-29T00:57:01;60;53;
47079;PMS5003;33067;49.296;14.470;2022-12-29T00:59:26;50;46;
47079;PMS5003;33067;49.296;14.470;2022-12-29T01:01:52;39;37;
47079;PMS5003;33067;49.296;14.470;2022-12-29T01:04:18;30;29;
47079;PMS5003;33067;49.296;14.470;2022-12-29T01:06:43;32;32;
47079;PMS5003;33067;49.296;14.470;2022-12-29T01:09:09;65;60;
47079;PMS5003;33067;49.296;14.470;2022-12-29T01:11:34;47;42;
47079;PMS5003;33067;49.296;14.470;2022-12-29T01:14:00;81;70;
47079;PMS5003;33067;49.296;14.470;2022-12-29T01:16:25;54;51;
47079;PMS5003;33067;49.296;14.470;2022-12-29T01:18:50;51;44;
47079;PMS5003;33067;49.296;14.470;2022-12-29T01:21:15;38;35;
47079;PMS5003;33067;49.296;14.470;2022-12-29T01:23:40;37;34;
47079;PMS5003;33067;49.296;14.470;2022-12-29T01:26:09;34;32;
47079;PMS5003;33067;49.296;14.470;2022-12-29T01:28:32;44;38;
47079;PMS5003;33067;49.296;14.470;2022-12-29T01:30:59;39;34;
47079;PMS5003;33067;49.296;14.470;2022-12-29T01:33:23;30;30;
47079;PMS5003;33067;49.296;14.470;2022-12-29T01:35:49;42;41;
47079;PMS5003;33067;49.296;14.470;2022-12-29T01:38:14;36;35;
47079;PMS5003;33067;49.296;14.470;2022-12-29T01:40:43;39;39;
47079;PMS5003;33067;49.296;14.470;2022-12-29T01:43:07;41;41;
47079;PMS5003;33067;49.296;14.470;2022-12-29T01:45:30;55;55;
47079;PMS5003;33067;49.296;14.470;2022-12-29T01:47:56;26;24;
47079;PMS5003;33067;49.296;14.470;2022-12-29T01:50:22;40;40;
47079;PMS5003;33067;49.296;14.470;2022-12-29T01:52:47;30;30;
47079;PMS5003;33067;49.296;14.470;2022-12-29T01:55:11;29;28;
47079;PMS5003;33067;49.296;14.470;2022-12-29T01:57:38;30;30;
47079;PMS5003;33067;49.296;14.470;2022-12-29T02:00:03;24;24;
47079;PMS5003;33067;49.296;14.470;2022-12-29T02:02:28;22;22;
47079;PMS5003;33067;49.296;14.470;2022-12-29T02:04:53;36;35;
47079;PMS5003;33067;49.296;14.470;2022-12-29T02:07:20;27;24;
47079;PMS5003;33067;49.296;14.470;2022-12-29T02:09:45;25;24;
47079;PMS5003;33067;49.296;14.470;2022-12-29T02:12:10;35;35;
47079;PMS5003;33067;49.296;14.470;2022-12-29T02:14:35;24;23;
47079;PMS5003;33067;49.296;14.470;2022-12-29T02:17:04;32;32;
47079;PMS5003;33067;49.296;14.470;2022-12-29T02:21:56;43;43;
47079;PMS5003;33067;49.296;14.470;2022-12-29T02:26:47;25;22;
47079;PMS5003;33067;49.296;14.470;2022-12-29T02:31:34;38;38;
47079;PMS5003;33067;49.296;14.470;2022-12-29T02:34:01;48;44;
47079;PMS5003;33067;49.296;14.470;2022-12-29T02:36:27;22;20;
47079;PMS5003;33067;49.296;14.470;2022-12-29T02:38:53;23;20;
47079;PMS5003;33067;49.296;14.470;2022-12-29T02:41:18;20;20;
47079;PMS5003;33067;49.296;14.470;2022-12-29T02:43:43;43;40;
47079;PMS5003;33067;49.296;14.470;2022-12-29T02:46:10;35;35;
47079;PMS5003;33067;49.296;14.470;2022-12-29T02:48:35;31;30;
47079;PMS5003;33067;49.296;14.470;2022-12-29T02:50:59;25;25;
47079;PMS5003;33067;49.296;14.470;2022-12-29T02:53:23;18;18;
47079;PMS5003;33067;49.296;14.470;2022-12-29T02:55:49;19;19;
47079;PMS5003;33067;49.296;14.470;2022-12-29T02:58:16;20;19;
47079;PMS5003;33067;49.296;14.470;2022-12-29T03:00:41;22;22;
47079;PMS5003;33067;49.296;14.470;2022-12-29T03:03:14;30;28;
47079;PMS5003;33067;49.296;14.470;2022-12-29T03:05:36;39;39;
47079;PMS5003;33067;49.296;14.470;2022-12-29T03:07:57;20;18;
47079;PMS5003;33067;49.296;14.470;2022-12-29T03:13:01;18;18;
47079;PMS5003;33067;49.296;14.470;2022-12-29T03:15:26;21;21;
47079;PMS5003;33067;49.296;14.470;2022-12-29T03:17:51;16;16;
47079;PMS5003;33067;49.296;14.470;2022-12-29T03:20:17;20;18;
47079;PMS5003;33067;49.296;14.470;2022-12-29T03:22:42;38;36;
47079;PMS5003;33067;49.296;14.470;2022-12-29T03:25:09;20;18;
47079;PMS5003;33067;49.296;14.470;2022-12-29T03:27:34;32;29;
47079;PMS5003;33067;49.296;14.470;2022-12-29T03:29:59;55;54;
47079;PMS5003;33067;49.296;14.470;2022-12-29T03:32:26;22;21;
47079;PMS5003;33067;49.296;14.470;2022-12-29T03:34:49;88;87;
47079;PMS5003;33067;49.296;14.470;2022-12-29T03:37:15;42;40;
47079;PMS5003;33067;49.296;14.470;2022-12-29T03:39:40;13;13;
47079;PMS5003;33067;49.296;14.470;2022-12-29T03:42:07;13;13;
47079;PMS5003;33067;49.296;14.470;2022-12-29T03:44:32;15;15;
47079;PMS5003;33067;49.296;14.470;2022-12-29T03:46:57;15;15;
47079;PMS5003;33067;49.296;14.470;2022-12-29T03:49:22;14;14;
47079;PMS5003;33067;49.296;14.470;2022-12-29T03:51:48;15;15;
47079;PMS5003;33067;49.296;14.470;2022-12-29T03:54:13;17;17;
47079;PMS5003;33067;49.296;14.470;2022-12-29T03:56:38;55;55;
47079;PMS5003;33067;49.296;14.470;2022-12-29T03:59:04;28;27;
47079;PMS5003;33067;49.296;14.470;2022-12-29T04:01:30;9;9;
47079;PMS5003;33067;49.296;14.470;2022-12-29T04:03:55;13;12;
47079;PMS5003;33067;49.296;14.470;2022-12-29T04:06:21;13;13;
47079;PMS5003;33067;49.296;14.470;2022-12-29T04:08:46;24;21;
47079;PMS5003;33067;49.296;14.470;2022-12-29T04:11:12;36;35;
47079;PMS5003;33067;49.296;14.470;2022-12-29T04:13:37;11;11;
47079;PMS5003;33067;49.296;14.470;2022-12-29T04:16:03;15;15;
47079;PMS5003;33067;49.296;14.470;2022-12-29T04:18:28;17;15;
47079;PMS5003;33067;49.296;14.470;2022-12-29T04:20:54;16;15;
47079;PMS5003;33067;49.296;14.470;2022-12-29T04:23:19;14;13;
47079;PMS5003;33067;49.296;14.470;2022-12-29T04:25:45;19;18;
47079;PMS5003;33067;49.296;14.470;2022-12-29T04:28:10;9;9;
47079;PMS5003;33067;49.296;14.470;2022-12-29T04:30:36;16;16;
47079;PMS5003;33067;49.296;14.470;2022-12-29T04:33:01;45;45;
47079;PMS5003;33067;49.296;14.470;2022-12-29T04:35:26;37;37;
47079;PMS5003;33067;49.296;14.470;2022-12-29T04:37:52;19;19;
47079;PMS5003;33067;49.296;14.470;2022-12-29T04:40:18;52;52;
47079;PMS5003;33067;49.296;14.470;2022-12-29T04:42:43;36;33;
47079;PMS5003;33067;49.296;14.470;2022-12-29T04:45:08;21;21;
47079;PMS5003;33067;49.296;14.470;2022-12-29T04:47:34;21;21;
47079;PMS5003;33067;49.296;14.470;2022-12-29T04:49:59;25;22;
47079;PMS5003;33067;49.296;14.470;2022-12-29T04:52:25;15;15;
47079;PMS5003;33067;49.296;14.470;2022-12-29T04:54:50;19;16;
47079;PMS5003;33067;49.296;14.470;2022-12-29T04:57:15;32;32;
47079;PMS5003;33067;49.296;14.470;2022-12-29T04:59:41;14;14;
47079;PMS5003;33067;49.296;14.470;2022-12-29T05:02:06;25;22;
47079;PMS5003;33067;49.296;14.470;2022-12-29T05:04:32;17;17;
47079;PMS5003;33067;49.296;14.470;2022-12-29T05:06:57;21;20;
47079;PMS5003;33067;49.296;14.470;2022-12-29T05:09:23;24;19;
47079;PMS5003;33067;49.296;14.470;2022-12-29T05:11:49;31;31;
47079;PMS5003;33067;49.296;14.470;2022-12-29T05:14:14;13;11;
47079;PMS5003;33067;49.296;14.470;2022-12-29T05:16:40;7;7;
47079;PMS5003;33067;49.296;14.470;2022-12-29T05:19:05;7;7;
47079;PMS5003;33067;49.296;14.470;2022-12-29T05:21:31;7;7;
47079;PMS5003;33067;49.296;14.470;2022-12-29T05:23:56;13;10;
47079;PMS5003;33067;49.296;14.470;2022-12-29T05:26:22;14;11;
47079;PMS5003;33067;49.296;14.470;2022-12-29T05:28:47;68;66;
47079;PMS5003;33067;49.296;14.470;2022-12-29T05:31:12;40;40;
47079;PMS5003;33067;49.296;14.470;2022-12-29T05:33:38;46;45;
47079;PMS5003;33067;49.296;14.470;2022-12-29T05:36:03;26;25;
47079;PMS5003;33067;49.296;14.470;2022-12-29T05:38:28;24;23;
47079;PMS5003;33067;49.296;14.470;2022-12-29T05:40:53;18;16;
47079;PMS5003;33067;49.296;14.470;2022-12-29T05:43:19;20;20;
47079;PMS5003;33067;49.296;14.470;2022-12-29T05:45:44;15;15;
47079;PMS5003;33067;49.296;14.470;2022-12-29T05:48:10;17;17;
47079;PMS5003;33067;49.296;14.470;2022-12-29T05:50:35;21;21;
47079;PMS5003;33067;49.296;14.470;2022-12-29T05:53:01;20;18;
47079;PMS5003;33067;49.296;14.470;2022-12-29T05:55:26;28;27;
47079;PMS5003;33067;49.296;14.470;2022-12-29T05:57:51;27;27;
47079;PMS5003;33067;49.296;14.470;2022-12-29T06:00:17;27;27;
47079;PMS5003;33067;49.296;14.470;2022-12-29T06:02:43;20;20;
47079;PMS5003;33067;49.296;14.470;2022-12-29T06:05:08;11;10;
47079;PMS5003;33067;49.296;14.470;2022-12-29T06:07:33;15;13;
47079;PMS5003;33067;49.296;14.470;2022-12-29T06:09:59;14;13;
47079;PMS5003;33067;49.296;14.470;2022-12-29T06:12:24;18;18;
47079;PMS5003;33067;49.296;14.470;2022-12-29T06:14:50;25;24;
47079;PMS5003;33067;49.296;14.470;2022-12-29T06:17:15;42;36;
47079;PMS5003;33067;49.296;14.470;2022-12-29T06:19:40;18;16;
47079;PMS5003;33067;49.296;14.470;2022-12-29T06:22:06;20;19;
47079;PMS5003;33067;49.296;14.470;2022-12-29T06:24:31;14;12;
47079;PMS5003;33067;49.296;14.470;2022-12-29T06:26:57;13;13;
47079;PMS5003;33067;49.296;14.470;2022-12-29T06:29:22;8;8;
47079;PMS5003;33067;49.296;14.470;2022-12-29T06:31:48;5;5;
47079;PMS5003;33067;49.296;14.470;2022-12-29T06:34:13;5;5;
47079;PMS5003;33067;49.296;14.470;2022-12-29T06:36:39;4;4;
47079;PMS5003;33067;49.296;14.470;2022-12-29T06:39:04;5;3;
47079;PMS5003;33067;49.296;14.470;2022-12-29T06:41:30;7;5;
47079;PMS5003;33067;49.296;14.470;2022-12-29T06:43:55;4;4;
47079;PMS5003;33067;49.296;14.470;2022-12-29T06:46:21;2;2;
47079;PMS5003;33067;49.296;14.470;2022-12-29T06:48:46;4;2;
47079;PMS5003;33067;49.296;14.470;2022-12-29T06:51:11;2;2;
47079;PMS5003;33067;49.296;14.470;2022-12-29T06:53:37;2;2;
47079;PMS5003;33067;49.296;14.470;2022-12-29T06:56:03;1;1;
47079;PMS5003;33067;49.296;14.470;2022-12-29T06:58:28;2;2;
47079;PMS5003;33067;49.296;14.470;2022-12-29T07:00:53;3;3;
47079;PMS5003;33067;49.296;14.470;2022-12-29T07:03:19;2;2;
47079;PMS5003;33067;49.296;14.470;2022-12-29T07:05:44;2;2;
47079;PMS5003;33067;49.296;14.470;2022-12-29T07:08:10;3;3;
47079;PMS5003;33067;49.296;14.470;2022-12-29T07:10:35;7;5;
47079;PMS5003;33067;49.296;14.470;2022-12-29T07:13:00;12;9;
47079;PMS5003;33067;49.296;14.470;2022-12-29T07:15:26;22;19;
47079;PMS5003;33067;49.296;14.470;2022-12-29T07:17:52;11;8;
47079;PMS5003;33067;49.296;14.470;2022-12-29T07:20:17;8;8;
47079;PMS5003;33067;49.296;14.470;2022-12-29T07:22:43;5;5;
47079;PMS5003;33067;49.296;14.470;2022-12-29T07:25:08;5;5;
47079;PMS5003;33067;49.296;14.470;2022-12-29T07:27:34;5;5;
47079;PMS5003;33067;49.296;14.470;2022-12-29T07:29:59;6;6;
47079;PMS5003;33067;49.296;14.470;2022-12-29T07:32:24;8;8;
47079;PMS5003;33067;49.296;14.470;2022-12-29T07:34:50;16;13;
47079;PMS5003;33067;49.296;14.470;2022-12-29T07:37:15;12;12;
47079;PMS5003;33067;49.296;14.470;2022-12-29T07:39:40;9;9;
47079;PMS5003;33067;49.296;14.470;2022-12-29T07:42:06;6;6;
47079;PMS5003;33067;49.296;14.470;2022-12-29T07:44:31;5;5;
47079;PMS5003;33067;49.296;14.470;2022-12-29T07:46:56;4;4;
47079;PMS5003;33067;49.296;14.470;2022-12-29T07:49:22;4;4;
47079;PMS5003;33067;49.296;14.470;2022-12-29T07:51:47;5;3;
47079;PMS5003;33067;49.296;14.470;2022-12-29T07:54:13;3;3;
47079;PMS5003;33067;49.296;14.470;2022-12-29T07:56:38;5;4;
47079;PMS5003;33067;49.296;14.470;2022-12-29T07:59:04;3;3;
47079;PMS5003;33067;49.296;14.470;2022-12-29T08:01:29;3;3;
47079;PMS5003;33067;49.296;14.470;2022-12-29T08:03:54;2;2;
47079;PMS5003;33067;49.296;14.470;2022-12-29T08:06:20;3;3;
47079;PMS5003;33067;49.296;14.470;2022-12-29T08:08:45;3;3;
47079;PMS5003;33067;49.296;14.470;2022-12-29T08:11:10;3;3;
47079;PMS5003;33067;49.296;14.470;2022-12-29T08:13:36;9;6;
47079;PMS5003;33067;49.296;14.470;2022-12-29T08:16:01;12;11;
47079;PMS5003;33067;49.296;14.470;2022-12-29T08:18:27;11;10;
47079;PMS5003;33067;49.296;14.470;2022-12-29T08:20:52;7;6;
47079;PMS5003;33067;49.296;14.470;2022-12-29T08:23:18;13;11;
47079;PMS5003;33067;49.296;14.470;2022-12-29T08:25:43;11;9;
47079;PMS5003;33067;49.296;14.470;2022-12-29T08:28:08;10;9;
47079;PMS5003;33067;49.296;14.470;2022-12-29T08:30:35;12;11;
47079;PMS5003;33067;49.296;14.470;2022-12-29T08:32:59;6;6;
47079;PMS5003;33067;49.296;14.470;2022-12-29T08:35:25;5;5;
47079;PMS5003;33067;49.296;14.470;2022-12-29T08:37:50;5;5;
47079;PMS5003;33067;49.296;14.470;2022-12-29T08:40:15;3;3;
47079;PMS5003;33067;49.296;14.470;2022-12-29T08:42:40;6;5;
47079;PMS5003;33067;49.296;14.470;2022-12-29T08:45:06;10;7;
47079;PMS5003;33067;49.296;14.470;2022-12-29T08:47:31;9;6;
47079;PMS5003;33067;49.296;14.470;2022-12-29T08:49:56;7;6;
47079;PMS5003;33067;49.296;14.470;2022-12-29T08:52:21;15;15;
47079;PMS5003;33067;49.296;14.470;2022-12-29T08:54:46;15;15;
47079;PMS5003;33067;49.296;14.470;2022-12-29T08:57:12;16;13;
47079;PMS5003;33067;49.296;14.470;2022-12-29T08:59:37;11;9;
47079;PMS5003;33067;49.296;14.470;2022-12-29T09:02:03;8;6;
47079;PMS5003;33067;49.296;14.470;2022-12-29T09:04:28;7;7;
47079;PMS5003;33067;49.296;14.470;2022-12-29T09:06:53;11;10;
47079;PMS5003;33067;49.296;14.470;2022-12-29T09:09:19;11;10;
47079;PMS5003;33067;49.296;14.470;2022-12-29T09:11:44;13;11;
47079;PMS5003;33067;49.296;14.470;2022-12-29T09:14:09;19;16;
47079;PMS5003;33067;49.296;14.470;2022-12-29T09:16:35;15;14;
47079;PMS5003;33067;49.296;14.470;2022-12-29T09:19:00;13;10;
47079;PMS5003;33067;49.296;14.470;2022-12-29T09:21:26;18;16;
47079;PMS5003;33067;49.296;14.470;2022-12-29T09:23:52;14;13;
47079;PMS5003;33067;49.296;14.470;2022-12-29T09:26:17;29;29;
47079;PMS5003;33067;49.296;14.470;2022-12-29T09:28:43;21;21;
47079;PMS5003;33067;49.296;14.470;2022-12-29T09:31:08;29;29;
47079;PMS5003;33067;49.296;14.470;2022-12-29T09:33:34;22;22;
47079;PMS5003;33067;49.296;14.470;2022-12-29T09:35:59;20;20;
47079;PMS5003;33067;49.296;14.470;2022-12-29T09:38:25;23;20;
47079;PMS5003;33067;49.296;14.470;2022-12-29T09:40:50;22;22;
47079;PMS5003;33067;49.296;14.470;2022-12-29T09:43:27;24;24;
47079;PMS5003;33067;49.296;14.470;2022-12-29T09:45:42;28;25;
47079;PMS5003;33067;49.296;14.470;2022-12-29T09:48:07;28;28;
47079;PMS5003;33067;49.296;14.470;2022-12-29T09:50:32;34;31;
47079;PMS5003;33067;49.296;14.470;2022-12-29T09:52:58;15;15;
47079;PMS5003;33067;49.296;14.470;2022-12-29T09:55:23;18;15;
47079;PMS5003;33067;49.296;14.470;2022-12-29T09:57:48;15;15;
47079;PMS5003;33067;49.296;14.470;2022-12-29T10:00:14;15;13;
47079;PMS5003;33067;49.296;14.470;2022-12-29T10:02:39;13;10;
47079;PMS5003;33067;49.296;14.470;2022-12-29T10:05:03;16;13;
47079;PMS5003;33067;49.296;14.470;2022-12-29T10:07:33;14;12;
47079;PMS5003;33067;49.296;14.470;2022-12-29T10:09:56;11;11;
47079;PMS5003;33067;49.296;14.470;2022-12-29T10:12:21;7;7;
47079;PMS5003;33067;49.296;14.470;2022-12-29T10:14:50;5;5;
47079;PMS5003;33067;49.296;14.470;2022-12-29T10:17:12;6;4;
47079;PMS5003;33067;49.296;14.470;2022-12-29T10:19:42;6;6;
47079;PMS5003;33067;49.296;14.470;2022-12-29T10:22:06;18;16;
47079;PMS5003;33067;49.296;14.470;2022-12-29T10:24:26;26;26;
47079;PMS5003;33067;49.296;14.470;2022-12-29T10:26:52;25;19;
47079;PMS5003;33067;49.296;14.470;2022-12-29T10:29:18;19;19;
47079;PMS5003;33067;49.296;14.470;2022-12-29T10:31:44;34;33;
47079;PMS5003;33067;49.296;14.470;2022-12-29T10:34:14;38;34;
47079;PMS5003;33067;49.296;14.470;2022-12-29T10:36:37;116;111;
47079;PMS5003;33067;49.296;14.470;2022-12-29T10:39:02;31;30;
47079;PMS5003;33067;49.296;14.470;2022-12-29T10:41:27;60;55;
47079;PMS5003;33067;49.296;14.470;2022-12-29T10:43:52;56;56;
47079;PMS5003;33067;49.296;14.470;2022-12-29T10:46:17;171;158;
47079;PMS5003;33067;49.296;14.470;2022-12-29T10:48:42;532;462;
47079;PMS5003;33067;49.296;14.470;2022-12-29T10:51:08;419;362;
47079;PMS5003;33067;49.296;14.470;2022-12-29T10:53:35;202;175;
47079;PMS5003;33067;49.296;14.470;2022-12-29T10:55:58;220;211;
47079;PMS5003;33067;49.296;14.470;2022-12-29T10:58:24;102;89;
47079;PMS5003;33067;49.296;14.470;2022-12-29T11:00:51;558;489;
47079;PMS5003;33067;49.296;14.470;2022-12-29T11:03:21;249;218;
47079;PMS5003;33067;49.296;14.470;2022-12-29T11:05:41;79;74;
47079;PMS5003;33067;49.296;14.470;2022-12-29T11:08:08;451;381;
47079;PMS5003;33067;49.296;14.470;2022-12-29T11:10:35;368;322;
47079;PMS5003;33067;49.296;14.470;2022-12-29T11:12:58;144;128;
47079;PMS5003;33067;49.296;14.470;2022-12-29T11:15:23;494;432;
47079;PMS5003;33067;49.296;14.470;2022-12-29T11:17:49;37;36;
47079;PMS5003;33067;49.296;14.470;2022-12-29T11:20:24;8;8;
47079;PMS5003;33067;49.296;14.470;2022-12-29T11:22:39;993;782;
47079;PMS5003;33067;49.296;14.470;2022-12-29T11:25:06;543;453;
47079;PMS5003;33067;49.296;14.470;2022-12-29T11:27:30;807;643;
47079;PMS5003;33067;49.296;14.470;2022-12-29T11:29:56;811;676;
47079;PMS5003;33067;49.296;14.470;2022-12-29T11:32:23;397;324;
47079;PMS5003;33067;49.296;14.470;2022-12-29T11:34:47;1972;1545;
47079;PMS5003;33067;49.296;14.470;2022-12-29T11:37:12;664;528;
47079;PMS5003;33067;49.296;14.470;2022-12-29T11:39:38;2688;1876;
47079;PMS5003;33067;49.296;14.470;2022-12-29T11:42:02;1036;805;
47079;PMS5003;33067;49.296;14.470;2022-12-29T11:44:27;502;405;
47079;PMS5003;33067;49.296;14.470;2022-12-29T11:46:53;406;344;
47079;PMS5003;33067;49.296;14.470;2022-12-29T11:49:19;1330;1064;
47079;PMS5003;33067;49.296;14.470;2022-12-29T11:51:44;982;799;
47079;PMS5003;33067;49.296;14.470;2022-12-29T11:54:11;450;378;
47079;PMS5003;33067;49.296;14.470;2022-12-29T11:56:36;347;294;
47079;PMS5003;33067;49.296;14.470;2022-12-29T12:01:27;1225;994;
47079;PMS5003;33067;49.296;14.470;2022-12-29T12:03:52;1286;1026;
47079;PMS5003;33067;49.296;14.470;2022-12-29T12:06:18;685;595;
47079;PMS5003;33067;49.296;14.470;2022-12-29T12:08:43;690;582;
47079;PMS5003;33067;49.296;14.470;2022-12-29T12:11:09;388;340;
47079;PMS5003;33067;49.296;14.470;2022-12-29T12:13:33;535;470;
47079;PMS5003;33067;49.296;14.470;2022-12-29T12:15:59;200;180;
47079;PMS5003;33067;49.296;14.470;2022-12-29T12:18:34;163;143;
47079;PMS5003;33067;49.296;14.470;2022-12-29T12:20:50;22;22;
47079;PMS5003;33067;49.296;14.470;2022-12-29T12:23:18;482;416;
47079;PMS5003;33067;49.296;14.470;2022-12-29T12:25:42;1355;1126;
47079;PMS5003;33067;49.296;14.470;2022-12-29T12:28:09;417;362;
47079;PMS5003;33067;49.296;14.470;2022-12-29T12:30:33;649;566;
47079;PMS5003;33067;49.296;14.470;2022-12-29T12:32:58;279;247;
47079;PMS5003;33067;49.296;14.470;2022-12-29T12:35:24;726;622;
47079;PMS5003;33067;49.296;14.470;2022-12-29T12:37:52;74;63;
47079;PMS5003;33067;49.296;14.470;2022-12-29T12:40:20;62;60;
47079;PMS5003;33067;49.296;14.470;2022-12-29T12:42:40;48;48;
47079;PMS5003;33067;49.296;14.470;2022-12-29T12:45:13;51;48;
47079;PMS5003;33067;49.296;14.470;2022-12-29T12:47:35;28;27;
47079;PMS5003;33067;49.296;14.470;2022-12-29T12:50:00;40;39;
47079;PMS5003;33067;49.296;14.470;2022-12-29T12:52:22;84;78;
47079;PMS5003;33067;49.296;14.470;2022-12-29T12:54:53;46;46;
47079;PMS5003;33067;49.296;14.470;2022-12-29T12:57:13;25;25;
47079;PMS5003;33067;49.296;14.470;2022-12-29T12:59:40;41;38;
47079;PMS5003;33067;49.296;14.470;2022-12-29T13:02:06;12;12;
47079;PMS5003;33067;49.296;14.470;2022-12-29T13:06:54;15;12;
47079;PMS5003;33067;49.296;14.470;2022-12-29T13:09:24;35;35;
47079;PMS5003;33067;49.296;14.470;2022-12-29T13:11:49;1090;908;
47079;PMS5003;33067;49.296;14.470;2022-12-29T13:14:14;618;527;
47079;PMS5003;33067;49.296;14.470;2022-12-29T13:16:37;1243;981;
47079;PMS5003;33067;49.296;14.470;2022-12-29T13:19:02;1037;790;
47079;PMS5003;33067;49.296;14.470;2022-12-29T13:21:33;1244;974;
47079;PMS5003;33067;49.296;14.470;2022-12-29T13:23:52;1322;1015;
47079;PMS5003;33067;49.296;14.470;2022-12-29T13:26:17;547;461;
47079;PMS5003;33067;49.296;14.470;2022-12-29T13:28:45;414;349;
47079;PMS5003;33067;49.296;14.470;2022-12-29T13:31:09;711;573;
47079;PMS5003;33067;49.296;14.470;2022-12-29T13:33:35;873;700;
47079;PMS5003;33067;49.296;14.470;2022-12-29T13:36:00;624;504;
47079;PMS5003;33067;49.296;14.470;2022-12-29T13:38:24;1367;1084;
47079;PMS5003;33067;49.296;14.470;2022-12-29T13:40:50;293;247;
47079;PMS5003;33067;49.296;14.470;2022-12-29T13:43:15;693;576;
47079;PMS5003;33067;49.296;14.470;2022-12-29T13:45:40;595;509;
47079;PMS5003;33067;49.296;14.470;2022-12-29T13:48:07;1065;863;
47079;PMS5003;33067;49.296;14.470;2022-12-29T13:50:33;424;370;
47079;PMS5003;33067;49.296;14.470;2022-12-29T13:52:59;279;237;
47079;PMS5003;33067;49.296;14.470;2022-12-29T13:55:24;385;344;
47079;PMS5003;33067;49.296;14.470;2022-12-29T13:57:49;353;318;
47079;PMS5003;33067;49.296;14.470;2022-12-29T14:00:15;423;376;
47079;PMS5003;33067;49.296;14.470;2022-12-29T14:02:42;80;75;
47079;PMS5003;33067;49.296;14.470;2022-12-29T14:05:05;520;477;
47079;PMS5003;33067;49.296;14.470;2022-12-29T14:07:29;92;85;
47079;PMS5003;33067;49.296;14.470;2022-12-29T14:09:55;53;52;
47079;PMS5003;33067;49.296;14.470;2022-12-29T14:12:22;88;80;
47079;PMS5003;33067;49.296;14.470;2022-12-29T14:14:47;38;36;
47079;PMS5003;33067;49.296;14.470;2022-12-29T14:17:11;59;54;
47079;PMS5003;33067;49.296;14.470;2022-12-29T14:19:37;56;49;
47079;PMS5003;33067;49.296;14.470;2022-12-29T14:22:03;76;67;
47079;PMS5003;33067;49.296;14.470;2022-12-29T14:24:39;52;47;
47079;PMS5003;33067;49.296;14.470;2022-12-29T14:26:54;33;33;
47079;PMS5003;33067;49.296;14.470;2022-12-29T14:31:44;19;19;
47079;PMS5003;33067;49.296;14.470;2022-12-29T14:36:35;10;8;
47079;PMS5003;33067;49.296;14.470;2022-12-29T14:39:01;16;14;
47079;PMS5003;33067;49.296;14.470;2022-12-29T14:41:29;9;8;
47079;PMS5003;33067;49.296;14.470;2022-12-29T14:43:52;7;7;
47079;PMS5003;33067;49.296;14.470;2022-12-29T14:46:16;9;7;
47079;PMS5003;33067;49.296;14.470;2022-12-29T14:48:42;6;6;
47079;PMS5003;33067;49.296;14.470;2022-12-29T14:51:17;10;8;
47079;PMS5003;33067;49.296;14.470;2022-12-29T14:53:41;12;12;
47079;PMS5003;33067;49.296;14.470;2022-12-29T14:55:58;10;10;
47079;PMS5003;33067;49.296;14.470;2022-12-29T14:58:25;19;18;
47079;PMS5003;33067;49.296;14.470;2022-12-29T15:00:49;9;9;
47079;PMS5003;33067;49.296;14.470;2022-12-29T15:03:17;9;8;
47079;PMS5003;33067;49.296;14.470;2022-12-29T15:05:41;11;8;
47079;PMS5003;33067;49.296;14.470;2022-12-29T15:08:05;10;8;
47079;PMS5003;33067;49.296;14.470;2022-12-29T15:10:38;7;6;
47079;PMS5003;33067;49.296;14.470;2022-12-29T15:13:00;10;9;
47079;PMS5003;33067;49.296;14.470;2022-12-29T15:15:21;9;9;
47079;PMS5003;33067;49.296;14.470;2022-12-29T15:17:46;7;7;
47079;PMS5003;33067;49.296;14.470;2022-12-29T15:20:16;8;8;
47079;PMS5003;33067;49.296;14.470;2022-12-29T15:22:36;7;7;
47079;PMS5003;33067;49.296;14.470;2022-12-29T15:25:01;10;10;
47079;PMS5003;33067;49.296;14.470;2022-12-29T15:27:27;8;8;
47079;PMS5003;33067;49.296;14.470;2022-12-29T15:29:56;10;9;
47079;PMS5003;33067;49.296;14.470;2022-12-29T15:32:20;11;11;
47079;PMS5003;33067;49.296;14.470;2022-12-29T15:34:43;7;6;
47079;PMS5003;33067;49.296;14.470;2022-12-29T15:37:08;18;18;
47079;PMS5003;33067;49.296;14.470;2022-12-29T15:39:34;14;14;
47079;PMS5003;33067;49.296;14.470;2022-12-29T15:41:59;14;11;
47079;PMS5003;33067;49.296;14.470;2022-12-29T15:44:25;22;16;
47079;PMS5003;33067;49.296;14.470;2022-12-29T15:46:50;24;18;
47079;PMS5003;33067;49.296;14.470;2022-12-29T15:49:15;16;12;
47079;PMS5003;33067;49.296;14.470;2022-12-29T15:51:40;20;20;
47079;PMS5003;33067;49.296;14.470;2022-12-29T15:54:06;12;12;
47079;PMS5003;33067;49.296;14.470;2022-12-29T15:56:32;19;17;
47079;PMS5003;33067;49.296;14.470;2022-12-29T15:58:57;28;27;
47079;PMS5003;33067;49.296;14.470;2022-12-29T16:01:23;15;15;
47079;PMS5003;33067;49.296;14.470;2022-12-29T16:03:47;13;13;
47079;PMS5003;33067;49.296;14.470;2022-12-29T16:08:39;16;14;
47079;PMS5003;33067;49.296;14.470;2022-12-29T16:11:05;16;14;